Terminal Aerodrome Forecast
Issued by NWS Pocatello, ID

Home | Current Version | Previous Version | Text Only | Print | Product List | Glossary On
Versions: 1 2 3 4 5 6 7 8 9 10 11 12 13
000
FTUS45 KPIH 251700
TAFBYI
TAF
KBYI 251720Z 2518/2618 20015G25KT P6SM FEW060 SCT200
     FM251900 20020G30KT P6SM FEW060 SCT090 SCT140
     FM260000 23015G25KT P6SM SCT060 BKN090
     FM260200 31010KT P6SM SCT060 OVC100
     FM260900 25020KT P6SM BKN050 OVC100=

USA.gov is the U.S. government's official web portal to all federal, state and local government web resources and services.